Appleton Thorn, United Kingdom
Current Conditions -  °F | °C
As of 12:50 PM on Saturday 20 Dec 2014 (Local Time) from EGCC Reporting Station
Rain Showers Rain Showers  
Wind Chill: 39°   Ceiling: 3200
Heat Index: 46°   Visibility: 6mi
Dew Point: 39°   Wind: 17mph
Humidity: 76%   Direction: 290°WNW
Pressure: 30.24"   Gusts: NA
Location:  53.35°N, 2.54°W
Report Text: EGCC 201250Z 29015KT 9999 -SHRA SCT022 BKN032TCU 08/04 Q1024 NOSIG
Loading
Personal Weather Stations






























Interactive Weather Map New forecast layout! Learn more

10-Day Weather Forecast

Advertisements
Track Severe Weather on mobile